sensor_id;sensor_type;location;lat;lon;timestamp;P1;durP1;ratioP1;P2;durP2;ratioP2
58768;SDS011;44536;47.474;19.056;2022-08-21T00:00:54;5.47;;;3.00;;
58768;SDS011;44536;47.474;19.056;2022-08-21T00:03:56;7.53;;;2.67;;
58768;SDS011;44536;47.474;19.056;2022-08-21T00:06:58;6.87;;;2.65;;
58768;SDS011;44536;47.474;19.056;2022-08-21T00:10:01;7.68;;;3.25;;
58768;SDS011;44536;47.474;19.056;2022-08-21T00:13:04;4.47;;;2.43;;
58768;SDS011;44536;47.474;19.056;2022-08-21T00:16:08;5.00;;;2.42;;
58768;SDS011;44536;47.474;19.056;2022-08-21T00:19:10;5.37;;;2.90;;
58768;SDS011;44536;47.474;19.056;2022-08-21T00:22:13;6.70;;;2.75;;
58768;SDS011;44536;47.474;19.056;2022-08-21T00:25:16;4.70;;;2.47;;
58768;SDS011;44536;47.474;19.056;2022-08-21T00:28:25;4.93;;;2.15;;
58768;SDS011;44536;47.474;19.056;2022-08-21T00:31:27;5.47;;;2.35;;
58768;SDS011;44536;47.474;19.056;2022-08-21T00:34:30;6.70;;;3.37;;
58768;SDS011;44536;47.474;19.056;2022-08-21T00:37:32;5.60;;;2.75;;
58768;SDS011;44536;47.474;19.056;2022-08-21T00:40:41;5.18;;;2.42;;
58768;SDS011;44536;47.474;19.056;2022-08-21T00:43:47;7.70;;;3.12;;
58768;SDS011;44536;47.474;19.056;2022-08-21T00:46:49;5.30;;;2.62;;
58768;SDS011;44536;47.474;19.056;2022-08-21T00:49:51;5.22;;;2.55;;
58768;SDS011;44536;47.474;19.056;2022-08-21T00:52:54;4.78;;;2.22;;
58768;SDS011;44536;47.474;19.056;2022-08-21T00:55:57;5.90;;;2.65;;
58768;SDS011;44536;47.474;19.056;2022-08-21T00:59:02;5.68;;;2.53;;
58768;SDS011;44536;47.474;19.056;2022-08-21T01:02:05;7.40;;;2.72;;
58768;SDS011;44536;47.474;19.056;2022-08-21T01:05:09;6.10;;;2.92;;
58768;SDS011;44536;47.474;19.056;2022-08-21T01:08:13;6.43;;;3.65;;
58768;SDS011;44536;47.474;19.056;2022-08-21T01:11:17;7.80;;;3.95;;
58768;SDS011;44536;47.474;19.056;2022-08-21T01:14:20;6.25;;;2.70;;
58768;SDS011;44536;47.474;19.056;2022-08-21T01:17:22;7.40;;;3.22;;
58768;SDS011;44536;47.474;19.056;2022-08-21T01:20:25;9.02;;;3.78;;
58768;SDS011;44536;47.474;19.056;2022-08-21T01:23:35;5.47;;;3.55;;
58768;SDS011;44536;47.474;19.056;2022-08-21T01:26:40;6.47;;;3.03;;
58768;SDS011;44536;47.474;19.056;2022-08-21T01:29:50;8.68;;;4.53;;
58768;SDS011;44536;47.474;19.056;2022-08-21T01:33:07;7.47;;;3.70;;
58768;SDS011;44536;47.474;19.056;2022-08-21T01:36:10;7.03;;;4.00;;
58768;SDS011;44536;47.474;19.056;2022-08-21T01:39:12;8.00;;;3.20;;
58768;SDS011;44536;47.474;19.056;2022-08-21T01:42:15;5.95;;;2.75;;
58768;SDS011;44536;47.474;19.056;2022-08-21T01:45:17;6.53;;;3.25;;
58768;SDS011;44536;47.474;19.056;2022-08-21T01:48:21;8.75;;;3.85;;
58768;SDS011;44536;47.474;19.056;2022-08-21T01:51:23;7.25;;;3.50;;
58768;SDS011;44536;47.474;19.056;2022-08-21T01:54:25;5.97;;;3.15;;
58768;SDS011;44536;47.474;19.056;2022-08-21T01:57:27;6.07;;;3.15;;
58768;SDS011;44536;47.474;19.056;2022-08-21T02:00:30;7.90;;;3.78;;
58768;SDS011;44536;47.474;19.056;2022-08-21T02:03:32;7.80;;;3.65;;
58768;SDS011;44536;47.474;19.056;2022-08-21T02:06:37;8.02;;;3.90;;
58768;SDS011;44536;47.474;19.056;2022-08-21T02:09:40;8.27;;;3.80;;
58768;SDS011;44536;47.474;19.056;2022-08-21T02:12:45;7.78;;;3.30;;
58768;SDS011;44536;47.474;19.056;2022-08-21T02:15:47;8.83;;;4.70;;
58768;SDS011;44536;47.474;19.056;2022-08-21T02:18:50;8.32;;;4.15;;
58768;SDS011;44536;47.474;19.056;2022-08-21T02:21:52;7.57;;;3.70;;
58768;SDS011;44536;47.474;19.056;2022-08-21T02:24:54;10.32;;;4.18;;
58768;SDS011;44536;47.474;19.056;2022-08-21T02:27:57;7.97;;;3.90;;
58768;SDS011;44536;47.474;19.056;2022-08-21T02:31:01;6.80;;;3.37;;
58768;SDS011;44536;47.474;19.056;2022-08-21T02:34:03;8.30;;;3.67;;
58768;SDS011;44536;47.474;19.056;2022-08-21T02:37:06;7.30;;;3.60;;
58768;SDS011;44536;47.474;19.056;2022-08-21T02:40:08;7.62;;;3.72;;
58768;SDS011;44536;47.474;19.056;2022-08-21T02:43:14;9.13;;;3.42;;
58768;SDS011;44536;47.474;19.056;2022-08-21T02:46:18;8.73;;;4.25;;
58768;SDS011;44536;47.474;19.056;2022-08-21T02:49:22;8.05;;;3.20;;
58768;SDS011;44536;47.474;19.056;2022-08-21T02:52:24;7.50;;;4.40;;
58768;SDS011;44536;47.474;19.056;2022-08-21T02:55:28;7.05;;;3.42;;
58768;SDS011;44536;47.474;19.056;2022-08-21T02:58:34;6.30;;;3.53;;
58768;SDS011;44536;47.474;19.056;2022-08-21T03:01:39;8.48;;;4.37;;
58768;SDS011;44536;47.474;19.056;2022-08-21T03:04:41;9.50;;;4.00;;
58768;SDS011;44536;47.474;19.056;2022-08-21T03:07:48;9.23;;;4.25;;
58768;SDS011;44536;47.474;19.056;2022-08-21T03:10:51;9.53;;;4.03;;
58768;SDS011;44536;47.474;19.056;2022-08-21T03:13:54;7.00;;;3.92;;
58768;SDS011;44536;47.474;19.056;2022-08-21T03:16:56;8.48;;;4.05;;
58768;SDS011;44536;47.474;19.056;2022-08-21T03:19:59;11.40;;;4.12;;
58768;SDS011;44536;47.474;19.056;2022-08-21T03:23:02;7.93;;;3.67;;
58768;SDS011;44536;47.474;19.056;2022-08-21T03:26:14;7.35;;;3.78;;
58768;SDS011;44536;47.474;19.056;2022-08-21T03:29:16;8.33;;;3.83;;
58768;SDS011;44536;47.474;19.056;2022-08-21T03:32:19;6.65;;;2.87;;
58768;SDS011;44536;47.474;19.056;2022-08-21T03:35:22;7.35;;;4.15;;
58768;SDS011;44536;47.474;19.056;2022-08-21T03:38:25;7.95;;;3.90;;
58768;SDS011;44536;47.474;19.056;2022-08-21T03:41:30;7.45;;;3.92;;
58768;SDS011;44536;47.474;19.056;2022-08-21T03:44:33;8.80;;;4.70;;
58768;SDS011;44536;47.474;19.056;2022-08-21T03:47:36;9.85;;;4.45;;
58768;SDS011;44536;47.474;19.056;2022-08-21T03:50:39;9.02;;;4.97;;
58768;SDS011;44536;47.474;19.056;2022-08-21T03:53:43;9.45;;;4.93;;
58768;SDS011;44536;47.474;19.056;2022-08-21T03:56:46;6.82;;;4.10;;
58768;SDS011;44536;47.474;19.056;2022-08-21T03:59:49;9.35;;;4.15;;
58768;SDS011;44536;47.474;19.056;2022-08-21T04:02:51;10.07;;;4.62;;
58768;SDS011;44536;47.474;19.056;2022-08-21T04:05:54;7.93;;;3.67;;
58768;SDS011;44536;47.474;19.056;2022-08-21T04:08:56;9.93;;;4.07;;
58768;SDS011;44536;47.474;19.056;2022-08-21T04:11:59;6.90;;;3.65;;
58768;SDS011;44536;47.474;19.056;2022-08-21T04:15:02;7.57;;;4.12;;
58768;SDS011;44536;47.474;19.056;2022-08-21T04:18:05;7.45;;;4.18;;
58768;SDS011;44536;47.474;19.056;2022-08-21T04:21:07;8.60;;;4.43;;
58768;SDS011;44536;47.474;19.056;2022-08-21T04:24:14;9.40;;;4.15;;
58768;SDS011;44536;47.474;19.056;2022-08-21T04:27:16;8.80;;;4.12;;
58768;SDS011;44536;47.474;19.056;2022-08-21T04:30:19;7.95;;;4.05;;
58768;SDS011;44536;47.474;19.056;2022-08-21T04:33:29;10.10;;;4.65;;
58768;SDS011;44536;47.474;19.056;2022-08-21T04:36:32;8.30;;;4.85;;
58768;SDS011;44536;47.474;19.056;2022-08-21T04:39:34;6.87;;;3.55;;
58768;SDS011;44536;47.474;19.056;2022-08-21T04:42:44;8.93;;;4.03;;
58768;SDS011;44536;47.474;19.056;2022-08-21T04:45:51;10.55;;;5.20;;
58768;SDS011;44536;47.474;19.056;2022-08-21T04:48:54;8.77;;;3.85;;
58768;SDS011;44536;47.474;19.056;2022-08-21T04:51:56;8.70;;;4.15;;
58768;SDS011;44536;47.474;19.056;2022-08-21T04:54:59;10.57;;;4.62;;
58768;SDS011;44536;47.474;19.056;2022-08-21T05:01:07;9.32;;;4.30;;
58768;SDS011;44536;47.474;19.056;2022-08-21T05:04:14;8.07;;;4.30;;
58768;SDS011;44536;47.474;19.056;2022-08-21T05:07:22;8.98;;;3.97;;
58768;SDS011;44536;47.474;19.056;2022-08-21T05:10:43;7.40;;;4.10;;
58768;SDS011;44536;47.474;19.056;2022-08-21T05:13:46;10.67;;;4.10;;
58768;SDS011;44536;47.474;19.056;2022-08-21T05:16:55;8.27;;;3.65;;
58768;SDS011;44536;47.474;19.056;2022-08-21T05:19:58;8.10;;;4.33;;
58768;SDS011;44536;47.474;19.056;2022-08-21T05:23:00;8.13;;;4.05;;
58768;SDS011;44536;47.474;19.056;2022-08-21T05:26:09;8.70;;;4.80;;
58768;SDS011;44536;47.474;19.056;2022-08-21T05:29:19;6.97;;;3.67;;
58768;SDS011;44536;47.474;19.056;2022-08-21T05:32:23;7.28;;;3.83;;
58768;SDS011;44536;47.474;19.056;2022-08-21T05:35:26;8.37;;;4.27;;
58768;SDS011;44536;47.474;19.056;2022-08-21T05:38:30;8.50;;;3.87;;
58768;SDS011;44536;47.474;19.056;2022-08-21T05:41:32;7.15;;;3.67;;
58768;SDS011;44536;47.474;19.056;2022-08-21T05:44:35;7.72;;;3.53;;
58768;SDS011;44536;47.474;19.056;2022-08-21T05:47:37;7.28;;;3.65;;
58768;SDS011;44536;47.474;19.056;2022-08-21T05:50:40;7.85;;;4.50;;
58768;SDS011;44536;47.474;19.056;2022-08-21T05:53:43;6.20;;;3.25;;
58768;SDS011;44536;47.474;19.056;2022-08-21T05:56:45;7.63;;;3.97;;
58768;SDS011;44536;47.474;19.056;2022-08-21T05:59:48;6.82;;;3.58;;
58768;SDS011;44536;47.474;19.056;2022-08-21T06:02:51;6.35;;;3.62;;
58768;SDS011;44536;47.474;19.056;2022-08-21T06:05:53;7.28;;;3.03;;
58768;SDS011;44536;47.474;19.056;2022-08-21T06:08:57;6.75;;;3.45;;
58768;SDS011;44536;47.474;19.056;2022-08-21T06:12:18;7.30;;;4.05;;
58768;SDS011;44536;47.474;19.056;2022-08-21T06:15:20;7.55;;;3.87;;
58768;SDS011;44536;47.474;19.056;2022-08-21T06:18:22;7.03;;;4.70;;
58768;SDS011;44536;47.474;19.056;2022-08-21T06:21:24;9.20;;;4.07;;
58768;SDS011;44536;47.474;19.056;2022-08-21T06:24:27;8.63;;;4.12;;
58768;SDS011;44536;47.474;19.056;2022-08-21T06:27:29;8.05;;;4.47;;
58768;SDS011;44536;47.474;19.056;2022-08-21T06:30:32;6.60;;;3.55;;
58768;SDS011;44536;47.474;19.056;2022-08-21T06:33:35;12.20;;;4.70;;
58768;SDS011;44536;47.474;19.056;2022-08-21T06:36:38;7.40;;;3.45;;
58768;SDS011;44536;47.474;19.056;2022-08-21T06:39:40;8.82;;;4.75;;
58768;SDS011;44536;47.474;19.056;2022-08-21T06:42:46;5.93;;;3.05;;
58768;SDS011;44536;47.474;19.056;2022-08-21T06:45:49;8.70;;;5.75;;
58768;SDS011;44536;47.474;19.056;2022-08-21T06:48:52;7.27;;;3.83;;
58768;SDS011;44536;47.474;19.056;2022-08-21T06:51:54;7.30;;;3.50;;
58768;SDS011;44536;47.474;19.056;2022-08-21T06:54:57;8.52;;;4.95;;
58768;SDS011;44536;47.474;19.056;2022-08-21T06:57:59;7.68;;;4.28;;
58768;SDS011;44536;47.474;19.056;2022-08-21T07:01:02;7.87;;;3.62;;
58768;SDS011;44536;47.474;19.056;2022-08-21T07:04:05;8.75;;;4.82;;
58768;SDS011;44536;47.474;19.056;2022-08-21T07:07:07;7.78;;;4.07;;
58768;SDS011;44536;47.474;19.056;2022-08-21T07:10:09;6.95;;;3.20;;
58768;SDS011;44536;47.474;19.056;2022-08-21T07:13:23;6.45;;;3.65;;
58768;SDS011;44536;47.474;19.056;2022-08-21T07:16:25;6.90;;;3.37;;
58768;SDS011;44536;47.474;19.056;2022-08-21T07:19:28;8.10;;;4.10;;
58768;SDS011;44536;47.474;19.056;2022-08-21T07:22:30;9.55;;;4.35;;
58768;SDS011;44536;47.474;19.056;2022-08-21T07:25:33;7.97;;;4.32;;
58768;SDS011;44536;47.474;19.056;2022-08-21T07:28:35;8.77;;;3.65;;
58768;SDS011;44536;47.474;19.056;2022-08-21T07:31:38;7.12;;;3.67;;
58768;SDS011;44536;47.474;19.056;2022-08-21T07:34:40;7.40;;;3.60;;
58768;SDS011;44536;47.474;19.056;2022-08-21T07:40:46;6.72;;;3.12;;
58768;SDS011;44536;47.474;19.056;2022-08-21T07:43:51;7.43;;;4.22;;
58768;SDS011;44536;47.474;19.056;2022-08-21T07:46:53;6.37;;;3.22;;
58768;SDS011;44536;47.474;19.056;2022-08-21T07:49:56;10.20;;;3.25;;
58768;SDS011;44536;47.474;19.056;2022-08-21T07:52:58;7.12;;;3.53;;
58768;SDS011;44536;47.474;19.056;2022-08-21T07:56:01;6.80;;;3.70;;
58768;SDS011;44536;47.474;19.056;2022-08-21T07:59:04;5.03;;;2.60;;
58768;SDS011;44536;47.474;19.056;2022-08-21T08:02:06;7.80;;;4.03;;
58768;SDS011;44536;47.474;19.056;2022-08-21T08:05:09;8.50;;;3.67;;
58768;SDS011;44536;47.474;19.056;2022-08-21T08:08:13;8.68;;;3.90;;
58768;SDS011;44536;47.474;19.056;2022-08-21T08:11:15;9.43;;;2.97;;
58768;SDS011;44536;47.474;19.056;2022-08-21T08:14:17;10.90;;;4.32;;
58768;SDS011;44536;47.474;19.056;2022-08-21T08:17:20;7.73;;;3.90;;
58768;SDS011;44536;47.474;19.056;2022-08-21T08:20:25;7.72;;;3.90;;
58768;SDS011;44536;47.474;19.056;2022-08-21T08:23:31;6.87;;;3.75;;
58768;SDS011;44536;47.474;19.056;2022-08-21T08:26:34;6.95;;;3.10;;
58768;SDS011;44536;47.474;19.056;2022-08-21T08:29:36;6.27;;;3.07;;
58768;SDS011;44536;47.474;19.056;2022-08-21T08:32:39;8.43;;;3.62;;
58768;SDS011;44536;47.474;19.056;2022-08-21T08:35:44;7.82;;;3.50;;
58768;SDS011;44536;47.474;19.056;2022-08-21T08:38:48;7.10;;;3.72;;
58768;SDS011;44536;47.474;19.056;2022-08-21T08:41:53;5.93;;;3.42;;
58768;SDS011;44536;47.474;19.056;2022-08-21T08:45:36;9.45;;;4.10;;
58768;SDS011;44536;47.474;19.056;2022-08-21T08:48:45;6.82;;;3.55;;
58768;SDS011;44536;47.474;19.056;2022-08-21T08:51:59;8.27;;;3.70;;
58768;SDS011;44536;47.474;19.056;2022-08-21T08:55:08;7.20;;;3.58;;
58768;SDS011;44536;47.474;19.056;2022-08-21T08:58:20;6.70;;;3.75;;
58768;SDS011;44536;47.474;19.056;2022-08-21T09:01:26;7.75;;;3.75;;
58768;SDS011;44536;47.474;19.056;2022-08-21T09:04:29;6.70;;;3.67;;
58768;SDS011;44536;47.474;19.056;2022-08-21T09:07:35;6.82;;;3.53;;
58768;SDS011;44536;47.474;19.056;2022-08-21T09:14:10;9.63;;;4.85;;
58768;SDS011;44536;47.474;19.056;2022-08-21T09:20:49;8.00;;;3.10;;
58768;SDS011;44536;47.474;19.056;2022-08-21T09:24:00;6.57;;;3.55;;
58768;SDS011;44536;47.474;19.056;2022-08-21T09:27:13;7.07;;;3.87;;
58768;SDS011;44536;47.474;19.056;2022-08-21T09:30:18;6.35;;;3.55;;
58768;SDS011;44536;47.474;19.056;2022-08-21T09:33:25;6.80;;;3.45;;
58768;SDS011;44536;47.474;19.056;2022-08-21T09:36:49;6.43;;;3.42;;
58768;SDS011;44536;47.474;19.056;2022-08-21T09:39:52;6.65;;;4.03;;
58768;SDS011;44536;47.474;19.056;2022-08-21T09:42:56;6.90;;;3.63;;
58768;SDS011;44536;47.474;19.056;2022-08-21T09:46:11;7.10;;;4.50;;
58768;SDS011;44536;47.474;19.056;2022-08-21T09:49:29;7.30;;;4.53;;
58768;SDS011;44536;47.474;19.056;2022-08-21T09:52:33;8.15;;;3.97;;
58768;SDS011;44536;47.474;19.056;2022-08-21T09:55:46;7.70;;;4.57;;
58768;SDS011;44536;47.474;19.056;2022-08-21T09:59:30;7.72;;;3.70;;
58768;SDS011;44536;47.474;19.056;2022-08-21T10:02:38;6.53;;;3.80;;
58768;SDS011;44536;47.474;19.056;2022-08-21T10:05:49;6.50;;;3.80;;
58768;SDS011;44536;47.474;19.056;2022-08-21T10:09:03;7.07;;;3.65;;
58768;SDS011;44536;47.474;19.056;2022-08-21T10:12:11;8.38;;;4.65;;
58768;SDS011;44536;47.474;19.056;2022-08-21T10:15:34;6.87;;;4.32;;
58768;SDS011;44536;47.474;19.056;2022-08-21T10:18:56;7.37;;;4.57;;
58768;SDS011;44536;47.474;19.056;2022-08-21T10:22:05;7.05;;;3.60;;
58768;SDS011;44536;47.474;19.056;2022-08-21T10:28:27;7.12;;;3.78;;
58768;SDS011;44536;47.474;19.056;2022-08-21T10:42:17;6.55;;;3.83;;
58768;SDS011;44536;47.474;19.056;2022-08-21T10:59:23;7.60;;;4.70;;
58768;SDS011;44536;47.474;19.056;2022-08-21T11:02:45;6.82;;;3.75;;
58768;SDS011;44536;47.474;19.056;2022-08-21T11:05:55;8.23;;;4.12;;
58768;SDS011;44536;47.474;19.056;2022-08-21T11:09:10;7.95;;;4.30;;
58768;SDS011;44536;47.474;19.056;2022-08-21T11:12:19;7.07;;;4.18;;
58768;SDS011;44536;47.474;19.056;2022-08-21T11:15:56;9.15;;;4.60;;
58768;SDS011;44536;47.474;19.056;2022-08-21T11:25:34;7.00;;;3.92;;
58768;SDS011;44536;47.474;19.056;2022-08-21T11:29:23;7.40;;;4.35;;
58768;SDS011;44536;47.474;19.056;2022-08-21T11:32:36;7.62;;;3.78;;
58768;SDS011;44536;47.474;19.056;2022-08-21T11:36:02;6.87;;;4.10;;
58768;SDS011;44536;47.474;19.056;2022-08-21T11:39:22;7.18;;;4.10;;
58768;SDS011;44536;47.474;19.056;2022-08-21T11:42:31;6.37;;;4.07;;
58768;SDS011;44536;47.474;19.056;2022-08-21T11:45:47;7.05;;;3.47;;
58768;SDS011;44536;47.474;19.056;2022-08-21T11:55:15;7.97;;;4.25;;
58768;SDS011;44536;47.474;19.056;2022-08-21T11:58:32;9.88;;;5.30;;
58768;SDS011;44536;47.474;19.056;2022-08-21T12:01:41;10.40;;;4.60;;
58768;SDS011;44536;47.474;19.056;2022-08-21T12:04:48;9.05;;;4.40;;
58768;SDS011;44536;47.474;19.056;2022-08-21T12:08:02;8.27;;;3.97;;
58768;SDS011;44536;47.474;19.056;2022-08-21T12:14:17;7.68;;;4.03;;
58768;SDS011;44536;47.474;19.056;2022-08-21T12:17:22;9.55;;;4.25;;
58768;SDS011;44536;47.474;19.056;2022-08-21T12:20:40;7.05;;;4.00;;
58768;SDS011;44536;47.474;19.056;2022-08-21T12:24:03;8.35;;;3.90;;
58768;SDS011;44536;47.474;19.056;2022-08-21T12:27:22;5.95;;;3.45;;
58768;SDS011;44536;47.474;19.056;2022-08-21T12:30:35;8.23;;;3.60;;
58768;SDS011;44536;47.474;19.056;2022-08-21T12:33:40;7.80;;;4.22;;
58768;SDS011;44536;47.474;19.056;2022-08-21T12:36:52;6.70;;;3.58;;
58768;SDS011;44536;47.474;19.056;2022-08-21T12:39:58;6.82;;;3.80;;
58768;SDS011;44536;47.474;19.056;2022-08-21T12:43:02;7.62;;;3.97;;
58768;SDS011;44536;47.474;19.056;2022-08-21T12:46:07;7.07;;;3.97;;
58768;SDS011;44536;47.474;19.056;2022-08-21T12:49:26;8.30;;;4.65;;
58768;SDS011;44536;47.474;19.056;2022-08-21T12:52:34;7.72;;;3.50;;
58768;SDS011;44536;47.474;19.056;2022-08-21T12:55:41;7.25;;;3.92;;
58768;SDS011;44536;47.474;19.056;2022-08-21T12:58:46;7.45;;;3.83;;
58768;SDS011;44536;47.474;19.056;2022-08-21T13:01:58;7.95;;;4.55;;
58768;SDS011;44536;47.474;19.056;2022-08-21T13:05:05;9.10;;;4.32;;
58768;SDS011;44536;47.474;19.056;2022-08-21T13:08:12;8.00;;;4.15;;
58768;SDS011;44536;47.474;19.056;2022-08-21T13:11:16;9.65;;;4.43;;
58768;SDS011;44536;47.474;19.056;2022-08-21T13:14:36;10.18;;;5.20;;
58768;SDS011;44536;47.474;19.056;2022-08-21T13:17:47;10.10;;;5.57;;
58768;SDS011;44536;47.474;19.056;2022-08-21T13:20:52;11.35;;;5.32;;
58768;SDS011;44536;47.474;19.056;2022-08-21T13:24:14;19.80;;;6.65;;
58768;SDS011;44536;47.474;19.056;2022-08-21T13:30:57;10.77;;;6.15;;
58768;SDS011;44536;47.474;19.056;2022-08-21T13:34:00;9.68;;;4.68;;
58768;SDS011;44536;47.474;19.056;2022-08-21T13:37:04;10.80;;;6.62;;
58768;SDS011;44536;47.474;19.056;2022-08-21T13:40:10;12.60;;;7.90;;
58768;SDS011;44536;47.474;19.056;2022-08-21T13:43:18;13.00;;;6.62;;
58768;SDS011;44536;47.474;19.056;2022-08-21T13:46:24;13.85;;;6.45;;
58768;SDS011;44536;47.474;19.056;2022-08-21T13:49:31;11.88;;;6.82;;
58768;SDS011;44536;47.474;19.056;2022-08-21T13:52:44;10.05;;;5.40;;
58768;SDS011;44536;47.474;19.056;2022-08-21T13:55:51;9.32;;;5.80;;
58768;SDS011;44536;47.474;19.056;2022-08-21T13:58:53;11.77;;;5.77;;
58768;SDS011;44536;47.474;19.056;2022-08-21T14:01:59;13.62;;;6.07;;
58768;SDS011;44536;47.474;19.056;2022-08-21T14:05:32;9.52;;;5.47;;
58768;SDS011;44536;47.474;19.056;2022-08-21T14:11:37;8.93;;;4.70;;
58768;SDS011;44536;47.474;19.056;2022-08-21T14:14:41;9.57;;;4.75;;
58768;SDS011;44536;47.474;19.056;2022-08-21T14:17:45;9.10;;;5.15;;
58768;SDS011;44536;47.474;19.056;2022-08-21T14:20:47;8.83;;;4.77;;
58768;SDS011;44536;47.474;19.056;2022-08-21T14:24:01;9.02;;;5.32;;
58768;SDS011;44536;47.474;19.056;2022-08-21T14:27:16;8.75;;;5.25;;
58768;SDS011;44536;47.474;19.056;2022-08-21T14:30:21;8.23;;;5.15;;
58768;SDS011;44536;47.474;19.056;2022-08-21T14:33:32;12.50;;;5.00;;
58768;SDS011;44536;47.474;19.056;2022-08-21T14:36:35;8.65;;;5.12;;
58768;SDS011;44536;47.474;19.056;2022-08-21T14:39:37;9.80;;;5.55;;
58768;SDS011;44536;47.474;19.056;2022-08-21T14:42:44;8.60;;;4.95;;
58768;SDS011;44536;47.474;19.056;2022-08-21T14:45:48;7.45;;;4.25;;
58768;SDS011;44536;47.474;19.056;2022-08-21T14:48:50;7.17;;;4.00;;
58768;SDS011;44536;47.474;19.056;2022-08-21T14:51:53;7.70;;;3.67;;
58768;SDS011;44536;47.474;19.056;2022-08-21T14:54:59;7.15;;;4.03;;
58768;SDS011;44536;47.474;19.056;2022-08-21T14:58:02;9.88;;;4.15;;
58768;SDS011;44536;47.474;19.056;2022-08-21T15:01:07;7.75;;;4.12;;
58768;SDS011;44536;47.474;19.056;2022-08-21T15:04:10;7.15;;;4.28;;
58768;SDS011;44536;47.474;19.056;2022-08-21T15:07:13;6.12;;;3.30;;
58768;SDS011;44536;47.474;19.056;2022-08-21T15:10:15;8.27;;;3.85;;
58768;SDS011;44536;47.474;19.056;2022-08-21T15:13:18;6.33;;;3.73;;
58768;SDS011;44536;47.474;19.056;2022-08-21T15:16:21;6.70;;;3.10;;
58768;SDS011;44536;47.474;19.056;2022-08-21T15:19:24;6.07;;;3.55;;
58768;SDS011;44536;47.474;19.056;2022-08-21T15:22:27;6.28;;;3.45;;
58768;SDS011;44536;47.474;19.056;2022-08-21T15:25:29;6.63;;;3.23;;
58768;SDS011;44536;47.474;19.056;2022-08-21T15:28:33;6.80;;;4.80;;
58768;SDS011;44536;47.474;19.056;2022-08-21T15:31:36;6.15;;;3.20;;
58768;SDS011;44536;47.474;19.056;2022-08-21T15:34:54;7.22;;;3.97;;
58768;SDS011;44536;47.474;19.056;2022-08-21T15:37:57;7.30;;;4.35;;
58768;SDS011;44536;47.474;19.056;2022-08-21T15:41:01;6.20;;;3.00;;
58768;SDS011;44536;47.474;19.056;2022-08-21T15:44:05;6.10;;;3.40;;
58768;SDS011;44536;47.474;19.056;2022-08-21T15:47:18;5.53;;;3.37;;
58768;SDS011;44536;47.474;19.056;2022-08-21T15:50:23;6.50;;;3.12;;
58768;SDS011;44536;47.474;19.056;2022-08-21T15:53:27;7.55;;;3.95;;
58768;SDS011;44536;47.474;19.056;2022-08-21T15:56:34;6.35;;;3.75;;
58768;SDS011;44536;47.474;19.056;2022-08-21T15:59:42;6.00;;;3.75;;
58768;SDS011;44536;47.474;19.056;2022-08-21T16:02:49;7.20;;;3.53;;
58768;SDS011;44536;47.474;19.056;2022-08-21T16:05:55;7.60;;;4.37;;
58768;SDS011;44536;47.474;19.056;2022-08-21T16:08:59;7.45;;;3.95;;
58768;SDS011;44536;47.474;19.056;2022-08-21T16:12:02;6.03;;;3.45;;
58768;SDS011;44536;47.474;19.056;2022-08-21T16:15:06;6.37;;;3.58;;
58768;SDS011;44536;47.474;19.056;2022-08-21T16:18:21;5.28;;;2.92;;
58768;SDS011;44536;47.474;19.056;2022-08-21T16:21:24;5.90;;;2.80;;
58768;SDS011;44536;47.474;19.056;2022-08-21T16:24:27;5.00;;;2.33;;
58768;SDS011;44536;47.474;19.056;2022-08-21T16:27:29;4.93;;;2.80;;
58768;SDS011;44536;47.474;19.056;2022-08-21T16:30:35;5.87;;;2.58;;
58768;SDS011;44536;47.474;19.056;2022-08-21T16:33:39;5.03;;;2.13;;
58768;SDS011;44536;47.474;19.056;2022-08-21T16:36:45;5.37;;;2.40;;
58768;SDS011;44536;47.474;19.056;2022-08-21T16:39:48;6.00;;;4.05;;
58768;SDS011;44536;47.474;19.056;2022-08-21T16:42:53;5.37;;;2.80;;
58768;SDS011;44536;47.474;19.056;2022-08-21T16:45:57;6.28;;;2.47;;
58768;SDS011;44536;47.474;19.056;2022-08-21T16:49:00;5.15;;;2.50;;
58768;SDS011;44536;47.474;19.056;2022-08-21T16:52:03;5.93;;;2.47;;
58768;SDS011;44536;47.474;19.056;2022-08-21T16:55:06;5.85;;;2.80;;
58768;SDS011;44536;47.474;19.056;2022-08-21T17:01:24;5.62;;;2.40;;
58768;SDS011;44536;47.474;19.056;2022-08-21T17:04:29;4.55;;;2.25;;
58768;SDS011;44536;47.474;19.056;2022-08-21T17:07:32;4.33;;;2.20;;
58768;SDS011;44536;47.474;19.056;2022-08-21T17:10:41;5.07;;;2.28;;
58768;SDS011;44536;47.474;19.056;2022-08-21T17:13:46;6.60;;;2.62;;
58768;SDS011;44536;47.474;19.056;2022-08-21T17:16:50;5.43;;;2.17;;
58768;SDS011;44536;47.474;19.056;2022-08-21T17:19:55;5.35;;;2.35;;
58768;SDS011;44536;47.474;19.056;2022-08-21T17:22:57;4.60;;;1.95;;
58768;SDS011;44536;47.474;19.056;2022-08-21T17:26:00;5.27;;;1.97;;
58768;SDS011;44536;47.474;19.056;2022-08-21T17:29:03;3.60;;;1.63;;
58768;SDS011;44536;47.474;19.056;2022-08-21T17:32:10;4.85;;;1.90;;
58768;SDS011;44536;47.474;19.056;2022-08-21T17:35:13;3.90;;;1.97;;
58768;SDS011;44536;47.474;19.056;2022-08-21T17:38:15;4.28;;;1.62;;
58768;SDS011;44536;47.474;19.056;2022-08-21T17:41:18;3.03;;;1.50;;
58768;SDS011;44536;47.474;19.056;2022-08-21T17:44:21;5.12;;;2.30;;
58768;SDS011;44536;47.474;19.056;2022-08-21T17:47:23;4.55;;;2.25;;
58768;SDS011;44536;47.474;19.056;2022-08-21T17:50:26;5.90;;;2.42;;
58768;SDS011;44536;47.474;19.056;2022-08-21T17:53:29;4.12;;;1.37;;
58768;SDS011;44536;47.474;19.056;2022-08-21T17:56:32;3.65;;;1.65;;
58768;SDS011;44536;47.474;19.056;2022-08-21T17:59:37;3.92;;;1.45;;
58768;SDS011;44536;47.474;19.056;2022-08-21T18:02:40;5.28;;;2.10;;
58768;SDS011;44536;47.474;19.056;2022-08-21T18:05:45;4.07;;;1.45;;
58768;SDS011;44536;47.474;19.056;2022-08-21T18:08:49;4.30;;;1.67;;
58768;SDS011;44536;47.474;19.056;2022-08-21T18:11:51;4.78;;;1.58;;
58768;SDS011;44536;47.474;19.056;2022-08-21T18:14:54;4.78;;;1.45;;
58768;SDS011;44536;47.474;19.056;2022-08-21T18:17:56;2.73;;;1.20;;
58768;SDS011;44536;47.474;19.056;2022-08-21T18:20:58;4.18;;;1.58;;
58768;SDS011;44536;47.474;19.056;2022-08-21T18:24:01;6.93;;;1.85;;
58768;SDS011;44536;47.474;19.056;2022-08-21T18:27:04;3.05;;;1.23;;
58768;SDS011;44536;47.474;19.056;2022-08-21T18:30:09;3.65;;;1.85;;
58768;SDS011;44536;47.474;19.056;2022-08-21T18:33:11;4.12;;;1.60;;
58768;SDS011;44536;47.474;19.056;2022-08-21T18:36:15;5.25;;;1.98;;
58768;SDS011;44536;47.474;19.056;2022-08-21T18:39:17;4.03;;;1.37;;
58768;SDS011;44536;47.474;19.056;2022-08-21T18:42:41;4.40;;;1.58;;
58768;SDS011;44536;47.474;19.056;2022-08-21T18:45:56;4.20;;;1.77;;
58768;SDS011;44536;47.474;19.056;2022-08-21T18:48:59;4.50;;;1.77;;
58768;SDS011;44536;47.474;19.056;2022-08-21T18:52:02;3.53;;;1.83;;
58768;SDS011;44536;47.474;19.056;2022-08-21T18:55:07;5.25;;;2.25;;
58768;SDS011;44536;47.474;19.056;2022-08-21T18:58:14;4.82;;;2.40;;
58768;SDS011;44536;47.474;19.056;2022-08-21T19:01:17;4.68;;;2.28;;
58768;SDS011;44536;47.474;19.056;2022-08-21T19:04:19;4.43;;;1.98;;
58768;SDS011;44536;47.474;19.056;2022-08-21T19:07:42;4.10;;;1.73;;
58768;SDS011;44536;47.474;19.056;2022-08-21T19:10:46;4.62;;;2.03;;
58768;SDS011;44536;47.474;19.056;2022-08-21T19:13:51;5.18;;;2.10;;
58768;SDS011;44536;47.474;19.056;2022-08-21T19:16:54;5.10;;;2.00;;
58768;SDS011;44536;47.474;19.056;2022-08-21T19:19:58;3.43;;;1.90;;
58768;SDS011;44536;47.474;19.056;2022-08-21T19:23:20;5.03;;;2.10;;
58768;SDS011;44536;47.474;19.056;2022-08-21T19:26:43;4.53;;;1.83;;
58768;SDS011;44536;47.474;19.056;2022-08-21T19:29:45;4.63;;;2.07;;